Time,TemperatureF,DewpointF,PressureIn,WindDirection,WindDirectionDegrees,WindSpeedMPH,WindSpeedGustMPH,Humidity,HourlyPrecipIn,Conditions,Clouds,dailyrainin,SolarRadiationWatts/m^2,SoftwareType,DateUTC
2013-10-21 00:04:00,59.4,14.0,29.95,NW,310,0.0,3.0,17,0.00,,,0.00,0,weatherlink.com 1.10,2013-10-21 07:04:00,
2013-10-21 00:19:00,58.7,15.0,29.95,NW,310,2.0,3.0,18,0.00,,,0.00,0,weatherlink.com 1.10,2013-10-21 07:19:00,
2013-10-21 00:34:00,58.9,15.0,29.95,NW,310,0.0,3.0,18,0.00,,,0.00,0,weatherlink.com 1.10,2013-10-21 07:34:00,
2013-10-21 00:50:00,55.1,16.0,29.96,NW,310,0.0,1.0,21,0.00,,,0.00,0,weatherlink.com 1.10,2013-10-21 07:50:00,
2013-10-21 01:05:00,52.4,15.0,29.96,NW,310,0.0,2.0,23,0.00,,,0.00,0,weatherlink.com 1.10,2013-10-21 08:05:00,
2013-10-21 01:20:00,51.8,15.0,29.97,NW,310,1.0,2.0,23,0.00,,,0.00,0,weatherlink.com 1.10,2013-10-21 08:20:00,
2013-10-21 01:35:00,52.6,15.0,29.97,NW,311,2.0,2.0,22,0.00,,,0.00,0,weatherlink.com 1.10,2013-10-21 08:35:00,
2013-10-21 01:50:00,53.8,15.0,29.97,NW,312,2.0,3.0,21,0.00,,,0.00,0,weatherlink.com 1.10,2013-10-21 08:50:00,
2013-10-21 02:05:00,53.2,15.0,29.97,NW,312,1.0,2.0,22,0.00,,,0.00,0,weatherlink.com 1.10,2013-10-21 09:05:00,
2013-10-21 02:20:00,52.3,15.0,29.97,NW,312,0.0,1.0,23,0.00,,,0.00,0,weatherlink.com 1.10,2013-10-21 09:20:00,
2013-10-21 02:35:00,51.7,15.0,29.97,NW,312,0.0,3.0,23,0.00,,,0.00,0,weatherlink.com 1.10,2013-10-21 09:35:00,
2013-10-21 02:50:00,52.4,15.0,29.97,NW,312,0.0,1.0,23,0.00,,,0.00,0,weatherlink.com 1.10,2013-10-21 09:50:00,
2013-10-21 03:05:00,51.4,16.0,29.97,NW,312,0.0,1.0,24,0.00,,,0.00,0,weatherlink.com 1.10,2013-10-21 10:05:00,
2013-10-21 03:20:00,51.0,15.0,29.97,NW,312,0.0,1.0,24,0.00,,,0.00,0,weatherlink.com 1.10,2013-10-21 10:20:00,
2013-10-21 03:35:00,50.4,16.0,29.97,NW,312,0.0,1.0,25,0.00,,,0.00,0,weatherlink.com 1.10,2013-10-21 10:35:00,
2013-10-21 03:50:00,50.5,16.0,29.97,NW,312,0.0,1.0,25,0.00,,,0.00,0,weatherlink.com 1.10,2013-10-21 10:50:00,
2013-10-21 04:05:00,51.8,17.0,29.97,NW,312,0.0,2.0,25,0.00,,,0.00,0,weatherlink.com 1.10,2013-10-21 11:05:00,
2013-10-21 04:20:00,50.6,16.0,29.97,NW,312,0.0,0.0,25,0.00,,,0.00,0,weatherlink.com 1.10,2013-10-21 11:20:00,
2013-10-21 04:35:00,50.5,17.0,29.97,NW,312,0.0,0.0,26,0.00,,,0.00,0,weatherlink.com 1.10,2013-10-21 11:35:00,
2013-10-21 04:50:00,50.4,17.0,29.98,NW,312,1.0,2.0,26,0.00,,,0.00,0,weatherlink.com 1.10,2013-10-21 11:50:00,
2013-10-21 05:05:00,49.9,16.0,29.98,NW,312,0.0,1.0,26,0.00,,,0.00,0,weatherlink.com 1.10,2013-10-21 12:05:00,
2013-10-21 05:20:00,50.1,15.0,29.98,NW,312,0.0,1.0,25,0.00,,,0.00,0,weatherlink.com 1.10,2013-10-21 12:20:00,
2013-10-21 05:35:00,50.0,15.0,29.98,NW,312,0.0,0.0,25,0.00,,,0.00,0,weatherlink.com 1.10,2013-10-21 12:35:00,
2013-10-21 05:50:00,49.9,15.0,29.99,NW,312,0.0,0.0,25,0.00,,,0.00,0,weatherlink.com 1.10,2013-10-21 12:50:00,
2013-10-21 06:05:00,50.0,16.0,29.99,NW,312,0.0,1.0,26,0.00,,,0.00,0,weatherlink.com 1.10,2013-10-21 13:05:00,
2013-10-21 06:20:00,50.3,16.0,29.99,NW,312,0.0,1.0,26,0.00,,,0.00,0,weatherlink.com 1.10,2013-10-21 13:20:00,
2013-10-21 06:35:00,50.1,17.0,29.99,NW,312,0.0,1.0,27,0.00,,,0.00,7,weatherlink.com 1.10,2013-10-21 13:35:00,
2013-10-21 06:50:00,49.8,17.0,30.00,NW,312,0.0,0.0,27,0.00,,,0.00,12,weatherlink.com 1.10,2013-10-21 13:50:00,
2013-10-21 07:06:00,51.4,17.0,30.00,NW,312,0.0,1.0,26,0.00,,,0.00,28,weatherlink.com 1.10,2013-10-21 14:06:00,
2013-10-21 07:20:00,52.3,18.0,30.01,NW,312,0.0,0.0,26,0.00,,,0.00,114,weatherlink.com 1.10,2013-10-21 14:20:00,
2013-10-21 07:35:00,54.7,18.0,30.02,NW,312,1.0,1.0,24,0.00,,,0.00,174,weatherlink.com 1.10,2013-10-21 14:35:00,
2013-10-21 07:50:00,57.7,19.0,30.02,NW,312,0.0,1.0,22,0.00,,,0.00,239,weatherlink.com 1.10,2013-10-21 14:50:00,
2013-10-21 08:05:00,61.4,20.0,30.02,NW,312,0.0,1.0,20,0.00,,,0.00,295,weatherlink.com 1.10,2013-10-21 15:05:00,
2013-10-21 08:21:00,64.0,22.0,30.02,NW,312,1.0,2.0,20,0.00,,,0.00,345,weatherlink.com 1.10,2013-10-21 15:21:00,
2013-10-21 08:36:00,65.6,21.0,30.02,NW,312,0.0,3.0,18,0.00,,,0.00,396,weatherlink.com 1.10,2013-10-21 15:36:00,
2013-10-21 08:51:00,67.6,21.0,30.02,NW,312,0.0,1.0,17,0.00,,,0.00,441,weatherlink.com 1.10,2013-10-21 15:51:00,
2013-10-21 09:06:00,69.8,21.0,30.02,NW,312,0.0,2.0,16,0.00,,,0.00,485,weatherlink.com 1.10,2013-10-21 16:06:00,
2013-10-21 09:21:00,72.8,21.0,30.02,NW,312,0.0,2.0,14,0.00,,,0.00,526,weatherlink.com 1.10,2013-10-21 16:21:00,
2013-10-21 09:36:00,73.9,18.0,30.02,NW,311,1.0,4.0,12,0.00,,,0.00,564,weatherlink.com 1.10,2013-10-21 16:36:00,
2013-10-21 09:51:00,75.4,19.0,30.02,NW,311,1.0,3.0,12,0.00,,,0.00,601,weatherlink.com 1.10,2013-10-21 16:51:00,
2013-10-21 10:06:00,76.1,18.0,30.02,NW,307,0.0,4.0,11,0.00,,,0.00,633,weatherlink.com 1.10,2013-10-21 17:06:00,
2013-10-21 10:21:00,77.3,19.0,30.01,WNW,299,0.0,4.0,11,0.00,,,0.00,661,weatherlink.com 1.10,2013-10-21 17:21:00,
2013-10-21 10:36:00,77.5,19.0,30.01,WNW,292,4.0,4.0,11,0.00,,,0.00,686,weatherlink.com 1.10,2013-10-21 17:36:00,
2013-10-21 10:51:00,77.8,17.0,30.02,WSW,254,0.0,5.0,10,0.00,,,0.00,707,weatherlink.com 1.10,2013-10-21 17:51:00,
2013-10-21 11:06:00,79.5,16.0,30.01,WSW,254,1.0,6.0,9,0.00,,,0.00,715,weatherlink.com 1.10,2013-10-21 18:06:00,
2013-10-21 11:21:00,80.2,16.0,30.01,WSW,254,1.0,6.0,9,0.00,,,0.00,737,weatherlink.com 1.10,2013-10-21 18:21:00,
2013-10-21 11:36:00,81.1,17.0,30.00,West,264,3.0,6.0,9,0.00,,,0.00,744,weatherlink.com 1.10,2013-10-21 18:36:00,
2013-10-21 11:51:00,81.6,15.0,30.00,West,265,4.0,6.0,8,0.00,,,0.00,747,weatherlink.com 1.10,2013-10-21 18:51:00,
2013-10-21 12:06:00,81.6,15.0,29.99,West,263,2.0,8.0,8,0.00,,,0.00,749,weatherlink.com 1.10,2013-10-21 19:06:00,
2013-10-21 12:22:00,82.1,15.0,29.99,West,266,2.0,7.0,8,0.00,,,0.00,747,weatherlink.com 1.10,2013-10-21 19:22:00,
2013-10-21 12:37:00,82.8,16.0,29.98,WSW,252,4.0,9.0,8,0.00,,,0.00,740,weatherlink.com 1.10,2013-10-21 19:37:00,
2013-10-21 12:52:00,82.1,15.0,29.97,WSW,248,1.0,8.0,8,0.00,,,0.00,729,weatherlink.com 1.10,2013-10-21 19:52:00,
2013-10-21 13:07:00,83.6,16.0,29.97,WSW,248,4.0,4.0,8,0.00,,,0.00,712,weatherlink.com 1.10,2013-10-21 20:07:00,
2013-10-21 13:22:00,83.7,16.0,29.96,WSW,256,2.0,6.0,8,0.00,,,0.00,693,weatherlink.com 1.10,2013-10-21 20:22:00,
2013-10-21 13:37:00,84.1,17.0,29.95,SW,231,6.0,10.0,8,0.00,,,0.00,670,weatherlink.com 1.10,2013-10-21 20:37:00,
2013-10-21 13:52:00,84.7,14.0,29.95,WSW,237,2.0,9.0,7,0.00,,,0.00,645,weatherlink.com 1.10,2013-10-21 20:52:00,
2013-10-21 14:07:00,85.0,14.0,29.95,SW,227,1.0,10.0,7,0.00,,,0.00,615,weatherlink.com 1.10,2013-10-21 21:07:00,
2013-10-21 14:22:00,85.3,14.0,29.95,WSW,242,6.0,10.0,7,0.00,,,0.00,580,weatherlink.com 1.10,2013-10-21 21:22:00,
2013-10-21 14:37:00,85.4,14.0,29.95,WSW,240,3.0,8.0,7,0.00,,,0.00,545,weatherlink.com 1.10,2013-10-21 21:37:00,
2013-10-21 14:52:00,86.3,12.0,29.94,WSW,250,7.0,10.0,6,0.00,,,0.00,506,weatherlink.com 1.10,2013-10-21 21:52:00,
2013-10-21 15:07:00,85.8,11.0,29.94,SW,229,7.0,13.0,6,0.00,,,0.00,466,weatherlink.com 1.10,2013-10-21 22:07:00,
2013-10-21 15:22:00,85.4,11.0,29.94,SW,227,1.0,12.0,6,0.00,,,0.00,418,weatherlink.com 1.10,2013-10-21 22:22:00,
2013-10-21 15:37:00,85.7,11.0,29.94,WSW,244,7.0,10.0,6,0.00,,,0.00,373,weatherlink.com 1.10,2013-10-21 22:37:00,
2013-10-21 15:52:00,85.0,11.0,29.94,WSW,237,4.0,10.0,6,0.00,,,0.00,322,weatherlink.com 1.10,2013-10-21 22:52:00,
2013-10-21 16:07:00,84.1,10.0,29.94,SW,232,8.0,11.0,6,0.00,,,0.00,274,weatherlink.com 1.10,2013-10-21 23:07:00,
2013-10-21 16:22:00,83.8,13.0,29.94,WSW,241,8.0,10.0,7,0.00,,,0.00,223,weatherlink.com 1.10,2013-10-21 23:22:00,
2013-10-21 16:37:00,83.4,13.0,29.94,West,267,4.0,10.0,7,0.00,,,0.00,165,weatherlink.com 1.10,2013-10-21 23:37:00,
2013-10-21 16:52:00,82.4,12.0,29.94,WSW,251,2.0,10.0,7,0.00,,,0.00,102,weatherlink.com 1.10,2013-10-21 23:52:00,
2013-10-21 17:07:00,81.6,12.0,29.94,WSW,242,9.0,10.0,7,0.00,,,0.00,54,weatherlink.com 1.10,2013-10-22 00:07:00,
2013-10-21 17:22:00,80.6,11.0,29.94,WSW,255,4.0,7.0,7,0.00,,,0.00,19,weatherlink.com 1.10,2013-10-22 00:22:00,
2013-10-21 17:37:00,78.8,13.0,29.95,WSW,249,4.0,8.0,8,0.00,,,0.00,9,weatherlink.com 1.10,2013-10-22 00:37:00,
2013-10-21 17:52:00,76.8,11.0,29.95,WSW,248,4.0,7.0,8,0.00,,,0.00,0,weatherlink.com 1.10,2013-10-22 00:52:00,
2013-10-21 18:07:00,75.5,13.0,29.95,WSW,248,2.0,7.0,9,0.00,,,0.00,0,weatherlink.com 1.10,2013-10-22 01:07:00,
2013-10-21 18:22:00,74.1,14.0,29.96,WSW,248,0.0,3.0,10,0.00,,,0.00,0,weatherlink.com 1.10,2013-10-22 01:22:00,
2013-10-21 18:37:00,72.6,15.0,29.96,WSW,248,0.0,1.0,11,0.00,,,0.00,0,weatherlink.com 1.10,2013-10-22 01:37:00,
2013-10-21 18:52:00,70.4,15.0,29.97,WSW,248,1.0,2.0,12,0.00,,,0.00,0,weatherlink.com 1.10,2013-10-22 01:52:00,
2013-10-21 19:07:00,68.6,16.0,29.97,WSW,248,1.0,2.0,13,0.00,,,0.00,0,weatherlink.com 1.10,2013-10-22 02:07:00,
2013-10-21 19:22:00,67.0,16.0,29.98,WSW,248,2.0,4.0,14,0.00,,,0.00,0,weatherlink.com 1.10,2013-10-22 02:22:00,
2013-10-21 19:37:00,66.0,15.0,29.98,WSW,248,2.0,4.0,14,0.00,,,0.00,0,weatherlink.com 1.10,2013-10-22 02:37:00,
2013-10-21 19:52:00,65.9,15.0,29.98,WSW,248,2.0,3.0,14,0.00,,,0.00,0,weatherlink.com 1.10,2013-10-22 02:52:00,
2013-10-21 20:07:00,65.7,15.0,29.98,WSW,248,1.0,3.0,14,0.00,,,0.00,0,weatherlink.com 1.10,2013-10-22 03:07:00,
2013-10-21 20:22:00,65.0,14.0,29.99,WSW,248,2.0,3.0,14,0.00,,,0.00,0,weatherlink.com 1.10,2013-10-22 03:22:00,
2013-10-21 20:37:00,65.2,15.0,29.99,WSW,249,2.0,3.0,14,0.00,,,0.00,0,weatherlink.com 1.10,2013-10-22 03:37:00,
2013-10-21 20:52:00,64.9,14.0,30.00,WSW,249,1.0,2.0,14,0.00,,,0.00,0,weatherlink.com 1.10,2013-10-22 03:52:00,
2013-10-21 21:07:00,64.0,15.0,30.00,WSW,249,2.0,3.0,15,0.00,,,0.00,0,weatherlink.com 1.10,2013-10-22 04:07:00,
2013-10-21 21:22:00,64.1,15.0,30.00,WSW,250,2.0,3.0,15,0.00,,,0.00,0,weatherlink.com 1.10,2013-10-22 04:22:00,
2013-10-21 21:37:00,64.3,16.0,30.00,WSW,250,2.0,2.0,15,0.00,,,0.00,0,weatherlink.com 1.10,2013-10-22 04:37:00,
2013-10-21 21:52:00,64.6,14.0,30.01,WSW,250,0.0,2.0,14,0.00,,,0.00,0,weatherlink.com 1.10,2013-10-22 04:52:00,
2013-10-21 22:07:00,64.0,15.0,30.01,WSW,250,1.0,3.0,15,0.00,,,0.00,0,weatherlink.com 1.10,2013-10-22 05:07:00,
2013-10-21 22:22:00,63.9,15.0,30.01,WSW,251,0.0,4.0,15,0.00,,,0.00,0,weatherlink.com 1.10,2013-10-22 05:22:00,
2013-10-21 22:37:00,62.4,14.0,30.01,WSW,250,0.0,2.0,15,0.00,,,0.00,0,weatherlink.com 1.10,2013-10-22 05:37:00,
2013-10-21 22:52:00,60.6,15.0,30.01,WSW,250,0.0,2.0,17,0.00,,,0.00,0,weatherlink.com 1.10,2013-10-22 05:52:00,
2013-10-21 23:07:00,59.7,16.0,30.01,WSW,250,0.0,2.0,18,0.00,,,0.00,0,weatherlink.com 1.10,2013-10-22 06:07:00,
2013-10-21 23:22:00,60.0,16.0,30.02,WSW,250,1.0,3.0,18,0.00,,,0.00,0,weatherlink.com 1.10,2013-10-22 06:22:00,
2013-10-21 23:37:00,59.6,17.0,30.02,WSW,251,0.0,3.0,19,0.00,,,0.00,0,weatherlink.com 1.10,2013-10-22 06:37:00,
2013-10-21 23:52:00,57.8,17.0,30.02,WSW,251,2.0,2.0,20,0.00,,,0.00,0,weatherlink.com 1.10,2013-10-22 06:52:00,